Temps Etape 1 et Heures de D├ępart Etape 2  
 
HeureConducteurAsaCoéquipierVoitureGroupeClassePénaTempsEcarts
09h321LEFEBVRE StéphaneESCAMOREAU GabinCITROËN C4 WRCFA8W 0:46:59,80 
09h343DURBEC ThibaultVARRENUCCI Jacques-JulienCITROËN DS3 WRCA8W 0:47:21,9000:22,10
09h362MICHEL SylvainSAVOIEDEGOUT JérômeSKODA Fabia R5RR520s0:47:45,2000:45,40
09h3811MARGAILLAN HugoSAINT-RAPHAËLPOUJOL SébastienCITROËN C3 R5RR5 0:47:57,1000:57,30
09h407FERAUD CyrilleGRASSEDUCHEMIN AymericCITROËN C4 WRCFA8W 0:48:21,001:21,20
09h424BAUD LionelMONT-BLANCCRAEN FabienCITROËN C3 R5RR5 0:48:51,4001:51,60
09h4412VATANEN MaxFinlandeGUIEU ChristopherHyundai i20 R5RR5 0:49:06,2002:06,40
09h4614COURCHET Julien-AlexandreMARSEILLEGORDON FabriceFORD Fiesta R5RR5 0:49:22,5002:22,70
09h4817TEN BRICK BernhardPays-BasPANSERI XavierSKODA Fabia R5RR5 0:49:33,3002:33,50
09h5015RAOUX Jean-MichelRESTONICAMAGAT LaurentSKODA Fabia R5RR5 0:51:04,7004:04,90
09h5221LAMOURET PaulCASTINEDELPECH FlorentMITSUBISHI Lancer Evo9FA8 0:52:06,1005:06,30
09h5416BELLON SamuelBOURBONGRANDEMANGE MarielleSKODA Fabia R5RR5 0:52:13,2005:13,40
09h5610PELLIER Laurent"74"COMBE GeoffreyCITROËN C3 R5RR5 4:52:08,10Rallye 2
09h5836MOREL Jean-LucMEDITERRANÉEAYASSE Jean-PierreSUBARU Impreza WRXFN4 0:52:26,6005:26,80
10h0018FALCO Jean-MarcGRASSEAUDIRAC CyrilMITSUBISHI Lancer Evo9RR420s0:52:48,9005:49,10
10h028"PIANO"RESTONICAMENCHINI MarcoFORD Fiesta WRCA8W 0:52:55,9005:56,10
10h0420SALIN DanielROUTE D'ARGENTSALIN BrigitteSUBARU Impreza WRXRR4 0:53:31,4006:31,60
10h0627THIRIET JohanSTANISLASMATHIEU LudovicMITSUBISHI Lancer Evo6FA8 0:53:37,2006:37,40
10h0819GAIDOZ HervéCHAMPAGNERICHARD FrançoisSUBARU Impreza WRXRR4 0:53:46,5006:46,70
10h1043VEYRARD DidierFOREZTARDY VincentSUBARU Impreza StiFN4 0:54:13,5007:13,70
10h1160MUNSTER GrégoireBelgiqueLOUKA LouisPEUGEOT 208 VTIRR2 0:54:49,2007:49,40
10h1231PERENON LaurentDAUPHINOISEDALLAY AurélieMITSUBISHI Lancer Evo6FA8 0:55:06,4008:06,60
10h1322TARDY GuillaumeFOREZBRUN RomainSUBARU Impreza WRXFA830s0:55:12,7008:12,90
10h1459VERONESE JosephTERRE DE CORSEVERONESE Marie-PaulePEUGEOT 208 VTIRR2 0:55:23,2008:23,40
10h1530DOLCE RenaudHAUTE PROVENCELAUZIER CarineMITSUBISHI Lancer Evo8FA8 0:55:29,3008:29,50
10h1645LOPEZ YannickISTRESLOPEZ BriceSUBARU Impreza WRXFN4 0:55:37,3008:37,50
10h179PRIOLO LaurentVENCE CITÉ DES ARTSPRIOLO CindyCITROËN Xsara WRCFA8W 0:55:50,9008:51,10
10h186TIRABASSI BriceSAINT-RAPHAËLDECLERCK LoïcHyundai i20 WRCA8W 5:35:56,50Rallye 2
10h1939CAMPAGNOLI GabrieleItalieARENA NicolaSUBARU Impreza StiN4 0:55:57,4008:57,60
10h2064DUCASTEL BenoîtMEDITERRANÉEDUCASTEL LoïcPEUGEOT 208 VTIRR2 0:56:31,5009:31,70
10h2148ASTIER LoïcSAINT-RAPHAËLDINI GilbertCITROËN DS3 R3RR3 0:56:37,7009:37,90
10h2253JOUINES RémiBITTEROISFONTAINE BastienPEUGEOT 207 RcRR3 0:56:38,7009:38,90
10h2392EYDOUX LaurentROQUE ET DURANCEMOUTOT OlivierPEUGEOT 206 XSFA6K 0:56:40,8009:41,0
10h2455CHAPUS SergeVIGNOBLE TARNAISFAVREAU MathieuCITROËN DS3 R3RR3 0:56:56,1009:56,30
10h2585BRECHET JulienMEDITERRANÉEESCARTEFIGUE ThomasCITROËN Saxo T4FA6K 0:56:57,9009:58,10
10h2650VITAL Jean-PierreHAUTE VALLÉE DE LA LOIREDECOUZON PierreCITROËN Saxo VTSF200013 0:57:12,1010:12,30
10h2762MATTEI DamienTERRE DE CORSEGAREL RomainFORD Fiesta R2JRR2J 0:57:30,4010:30,60
10h2863LOUVEL HugoALESVIDA AlexandreFORD Fiesta R2JRR2J 0:57:32,6010:32,80
10h29118GIRAUD GregoryDU VARESCARTEFIGUE JulesCITROËN Saxo T4FA6K 0:57:44,6010:44,80
10h3038ECK Jean-LucSAINT-RAPHAËLECK AurélienSUBARU Impreza WRXN4 0:57:47,010:47,20
10h3144LEFEBVRE AlexandreSAINT TROPEZCAPPUCCIO FrédéricSUBARU Impreza StiFN4 0:57:49,8010:50,0
10h3290MARCOBAL ThierryALESBOYER Jean-FrançoisCITROËN Saxo T4FA6K 0:57:57,010:57,20
10h3377DUVERGER AntoineMEDITERRANÉEGUY BenjaminRENAULT Clio RSF200014 0:57:59,7010:59,90
10h3451JULIA DavidALESAUBERTIN LudovicPEUGEOT 206 RcF200014 1:12:13,3025:13,50
10h3534CHAUVIN AntonyLOZEREMAGAUD FabienMITSUBISHI Lancer Evo6FA81m0s0:58:09,8011:10,0
10h3661BERENGIER ClémentVAUCLUSIENBAUMET EddyPEUGEOT 208 VTIRR2 0:58:16,8011:17,0
10h37112GELAS FabriceDRÔMEBARRACHIN FlorianPEUGEOT 106 S16F200013 0:58:25,1011:25,30
10h3867MOURET MichelHAUTE PROVENCEMOURET LisaFORD Fiesta R2JRR2J 0:58:44,2011:44,40
10h39117MAUREL AlainSAINT-AFFRIQUEMAUREL LucileCITROËN Saxo T4FA6K 0:58:56,011:56,20
10h4041PELUTTIERO LoïcGRASSEPELUTTIERO JorisSUBARU ImprezaFN4 0:59:50,8012:51,0
10h4194COLOMBE GeoffroyROQUE ET DURANCEFABREGUE RégisPEUGEOT 206 XSFA6K 1:00:11,3013:11,50
10h4280TARDY AurélienLANGRESBENELHOCINE CyrilPEUGEOT 206 RcFA7 1:00:14,6013:14,80
10h4358MAUREL YvesSAINT-AFFRIQUEMAUREL MaximePEUGEOT 207 RcRR3 1:00:21,8013:22,0
10h4456CREPIN MaudeALESFOURET JessicaCITROËN DS3 R3RR3 5:28:17,10Rallye 2
10h45111TRUCHET ChristopheMONTELIMARTRUCHET BarbaraPEUGEOT 106 S16F200013 1:00:32,8013:33,0
10h4686MAS PaulINGRESBIAGETTI LoanCITROËN Saxo T4FA6K 1:00:33,5013:33,70
10h47103GUIARDEL OlivierCHAMPAGNEGUIARDEL ThibautRENAULT Clio RagnottiFN3 1:00:42,4013:42,60
10h48100BELLIARDO DanielROUTE D'ARGENTAMALBERTI CédricPEUGEOT 306 S16FN3 5:35:56,50Rallye 2
10h49102GOUJON LionelSAVOIELAPERRIERE ChristophePEUGEOT 206 RcFN3 4:49:55,30Rallye 2
10h5069MOULIN FrançoisLOZEREBONNET DorineRENAULT Clio RSF200014 1:00:52,7013:52,90
10h5135MARTI ChristianROUTE D'ARGENTLAVIALE Jean-MarcMITSUBISHI Lancer Evo9FA8 1:01:26,8014:27,0
10h5287MARCOBAL CantinALESPELAMOURGUES MarineCITROËN Saxo T4FA6K 1:01:32,014:32,20
10h53120ROCARD ChristopheLANGRESMASSON KévinPEUGEOT 208 VTIRR2 1:01:56,2014:56,40
10h5474BERNARDI JacquesMEDITERRANÉEBERNARDI LéaPEUGEOT 309 GTI 16SF200014 1:02:15,6015:15,80
10h5542BATTUT TimoCASTINELARRIBE AlexSUBARU Impreza StiFN4 1:02:17,7015:17,90
10h5679ROCHER ArnaudLOZEREPAULHAN SabineRENAULT Clio RSFA7 1:02:22,5015:22,70
10h5775BON PatriceMEDITERRANÉEBLATTES ThierryPEUGEOT 306 S16F200014 1:02:36,5015:36,70
10h5883LAFITTE GuillaumeCORBIERESLAFITTE AngéliquePEUGEOT 206 RcFA7 1:02:43,9015:44,10
10h5965MEGE JérômeDRÔMEAUDIGIER FlorianPEUGEOT 208 VTIRR2 1:03:39,5016:39,70
11h00107DOLGOPYATOFF DamienLANGRESPERRIN ChristelleSUZUKI Swift SportFN2 1:04:06,3017:06,50
11h01115CASCIANI LudovicNICEBRAQUET ElysePEUGEOT 106 XSIFN1 1:04:51,8017:52,0
11h02109DUHAMEL BenjaminROQUEBRUNE RACING KARTROMANI GéraldinePEUGEOT 106 S16FN2 1:05:11,2018:11,40
11h03116VUITTENEZ VictorienSEQUANIECOTE COLISSON MaximePEUGEOT 106 XSIFN1 5:28:11,50Rallye 2
11h04104MONNIER DavidMEDITERRANÉELATOUR Jean-LouisPEUGEOT 205 GTIFN2 1:05:14,6018:14,80
11h05106GUIBERTIN Pierre-HenriDRÔMEGAILLARD LéoPEUGEOT 106 S16FN2 1:05:27,018:27,20
11h0668BOUSQUET ThierryMEDITERRANÉEDEFRANCE ElizabethPEUGEOT 208 VTIRR2 1:06:07,7019:07,90
11h0798ROUX PatrickQuatarPOGUT SébastienPEUGEOT 206 XSFA6K2m0s1:06:46,5019:46,70
11h0873ALIAS JohanHAUTE PROVENCEGARCIN ChristopherPEUGEOT 205 GTIF200014 1:06:57,2019:57,40
11h0928GLEY Jean-PierreLOZEREGLEY MadelineSUBARU Impreza GTFA8 1:07:00,7020:00,90
11h1023MORAES HenriMEDITERRANÉEMORAES AnthonySUBARU Impreza WRXFA8 4:00:07,60Rallye 2
11h11110FRANÇOIS LéaLANGRESBENOIT AdelinePEUGEOT 106 S16FN2 1:09:37,5022:37,70
11h1293PIREDDA OlivierTERRE DE CORSETAFANI Jean-FrançoisPEUGEOT 106 S16FA6K10s1:10:46,4023:46,60
11h13113ORSINI VivienMEDITERRANÉEORSINI AnthonyPEUGEOT 205 GTIF200013 1:10:58,9023:59,10
11h14105DI PAOLO AlainDE LA LOIREMORILLON FrédérikaPEUGEOT 106 S16FN2 1:12:54,8025:55,0
11h1578CLEMENT FrédéricSuissePIQUEREZ AdrienPEUGEOT 206 RcF200014 1:13:07,9026:08,10
11h1670PILLARD CédricROQUE ET DURANCEROND PhilippePEUGEOT 206 GTF200014 5:35:56,50Rallye 2
11h1771REGORD HervéHAUTE PROVENCEERARD FaustinPEUGEOT 205 GTIF200014 5:21:27,70Rallye 2
11h1872MORARD PhilippeVAISONNAISEGROULIER VincentCITROËN ZX 16VF200014 5:21:35,0Rallye 2
11h1991MOURTERON EricLANGRESMASSON PascalCITROËN Saxo T4FA6K 1:15:35,2028:35,40
11h2096PESENTI MickaelMONTELIMARETIENNE JulienPEUGEOT 206 XSFA6K 5:30:19,70Rallye 2
11h2197RAMEL OlivierSuisseJOSSERAND AlexisPEUGEOT 106 S16FA6 5:04:28,30Rallye 2
11h2299MOREL LucasMEDITERRANÉEGIDEL PhilippePEUGEOT 206 XSFA6 4:53:37,40Rallye 2
11h2382BELTRAMI CyrilMONT-BLANCPERRENOUD DylanPEUGEOT 206 RcFA72m30s1:21:30,6034:30,80
11h24114FACCIO AlexandraROUTE D'ARGENTFACCIO JuliePEUGEOT 106 XSIF20001210s1:26:37,4039:37,60
11h2584LAGIER StéphaneCIGALOISENIEL LucasPEUGEOT 306 S16FA7 1:26:50,9039:51,10
11h2681TROMEL FranckHAUTE PROVENCEARBOUX CorinnePEUGEOT 206 RcFA7 5:29:01,90Rallye 2